createdAt,value
2017-04-16T00:00:42.163Z,28.5
2017-04-16T00:01:42.235Z,28.5
2017-04-16T00:02:40.711Z,28.5
2017-04-16T00:03:40.825Z,28.5
2017-04-16T00:04:40.991Z,28.5
2017-04-16T00:05:40.643Z,28.5
2017-04-16T00:06:40.884Z,28.5
2017-04-16T00:07:40.877Z,28.5
2017-04-16T00:08:40.949Z,28.5
2017-04-16T00:09:40.903Z,28.5
2017-04-16T00:10:41.143Z,28.5
2017-04-16T00:11:42.521Z,28.5
2017-04-16T00:12:42.583Z,28.5
2017-04-16T00:13:42.625Z,28.5
2017-04-16T00:14:41.044Z,28.5
2017-04-16T00:15:42.860Z,28.5
2017-04-16T00:16:41.570Z,28.5
2017-04-16T00:17:41.517Z,28.5
2017-04-16T00:18:43.031Z,28.5
2017-04-16T00:19:43.076Z,28.5
2017-04-16T00:20:43.162Z,28.5
2017-04-16T00:21:41.590Z,28.5
2017-04-16T00:22:41.835Z,28.5
2017-04-16T00:23:43.395Z,28.5
2017-04-16T00:24:41.997Z,28.5
2017-04-16T00:25:43.563Z,28.5
2017-04-16T00:26:42.085Z,28.5
2017-04-16T00:27:42.248Z,28.5
2017-04-16T00:28:44.008Z,28.5
2017-04-16T00:29:42.114Z,28.5
2017-04-16T00:30:43.887Z,28.5
2017-04-16T00:31:43.844Z,28.5
2017-04-16T00:32:42.356Z,28.5
2017-04-16T00:33:42.343Z,28.5
2017-04-16T00:34:42.541Z,28.5
2017-04-16T00:35:44.015Z,28.5
2017-04-16T00:36:42.544Z,28.5
2017-04-16T00:37:44.194Z,28.5
2017-04-16T00:38:44.102Z,28.5
2017-04-16T00:39:44.244Z,28.5
2017-04-16T00:40:42.838Z,28.5
2017-04-16T00:41:42.774Z,28.5
2017-04-16T00:42:42.705Z,28.5
2017-04-16T00:43:44.400Z,28.5
2017-04-16T00:44:42.943Z,28.5
2017-04-16T00:45:42.841Z,28.5
2017-04-16T00:46:44.712Z,28.5
2017-04-16T00:47:44.612Z,28.5
2017-04-16T00:48:44.535Z,28.5
2017-04-16T00:49:44.710Z,28.5
2017-04-16T00:50:43.174Z,28.5
2017-04-16T00:51:44.882Z,28.5
2017-04-16T00:52:45.065Z,28.5
2017-04-16T00:53:44.840Z,28.5
2017-04-16T00:54:43.240Z,28.5
2017-04-16T00:55:44.869Z,28.5
2017-04-16T00:56:45.050Z,28.5
2017-04-16T00:57:45.045Z,28.5
2017-04-16T00:58:45.138Z,28.5
2017-04-16T00:59:44.999Z,28.5
2017-04-16T01:00:45.056Z,28.5
2017-04-16T01:01:45.122Z,28.5
2017-04-16T01:02:45.188Z,28.5
2017-04-16T01:03:45.216Z,28.5
2017-04-16T01:04:43.830Z,28.5
2017-04-16T01:05:43.660Z,28.5
2017-04-16T01:06:45.279Z,28.5
2017-04-16T01:07:45.522Z,28.5
2017-04-16T01:08:45.478Z,28.5
2017-04-16T01:09:45.440Z,28.5
2017-04-16T01:10:44.013Z,28.5
2017-04-16T01:11:43.938Z,28.5
2017-04-16T01:12:43.952Z,28.5
2017-04-16T01:13:44.116Z,28.5
2017-04-16T01:14:44.208Z,28.5
2017-04-16T01:15:44.944Z,28.5
2017-04-16T01:16:46.029Z,28.5
2017-04-16T01:17:45.966Z,28.4
2017-04-16T01:18:44.267Z,28.5
2017-04-16T01:19:46.571Z,28.5
2017-04-16T01:20:44.339Z,28.5
2017-04-16T01:21:45.289Z,28.5
2017-04-16T01:22:44.412Z,28.5
2017-04-16T01:23:46.149Z,28.5
2017-04-16T01:24:46.240Z,28.5
2017-04-16T01:25:44.629Z,28.5
2017-04-16T01:26:45.261Z,28.4
2017-04-16T01:27:45.602Z,28.5
2017-04-16T01:28:46.473Z,28.4
2017-04-16T01:29:45.478Z,28.5
2017-04-16T01:30:45.020Z,28.5
2017-04-16T01:31:44.974Z,28.5
2017-04-16T01:32:45.020Z,28.5
2017-04-16T01:33:46.854Z,28.4
2017-04-16T01:34:45.199Z,28.5
2017-04-16T01:35:45.984Z,28.4
2017-04-16T01:36:46.936Z,28.5
2017-04-16T01:37:47.015Z,28.4
2017-04-16T01:38:46.964Z,28.5
2017-04-16T01:39:46.207Z,28.5
2017-04-16T01:40:45.334Z,28.5
2017-04-16T01:41:46.180Z,28.5
2017-04-16T01:42:47.242Z,28.5
2017-04-16T01:43:45.829Z,28.5
2017-04-16T01:44:45.743Z,28.5
2017-04-16T01:45:47.686Z,28.5
2017-04-16T01:46:47.478Z,28.5
2017-04-16T01:47:45.985Z,28.5
2017-04-16T01:48:47.670Z,28.5
2017-04-16T01:49:47.671Z,28.5
2017-04-16T01:50:47.723Z,28.5
2017-04-16T01:51:48.510Z,28.5
2017-04-16T01:52:48.340Z,28.5
2017-04-16T01:53:47.830Z,28.5
2017-04-16T01:54:47.856Z,28.5
2017-04-16T01:55:46.435Z,28.5
2017-04-16T01:56:48.007Z,28.5
2017-04-16T01:57:48.293Z,28.4
2017-04-16T01:58:46.545Z,28.5
2017-04-16T01:59:46.600Z,28.4
2017-04-16T02:00:46.500Z,28.5
2017-04-16T02:01:47.226Z,28.4
2017-04-16T02:02:48.672Z,28.5
2017-04-16T02:03:46.821Z,28.5
2017-04-16T02:04:47.449Z,28.5
2017-04-16T02:05:46.841Z,28.5
2017-04-16T02:06:48.445Z,28.5
2017-04-16T02:07:49.252Z,28.5
2017-04-16T02:08:47.050Z,28.5
2017-04-16T02:09:48.811Z,28.5
2017-04-16T02:10:47.111Z,28.5
2017-04-16T02:11:47.229Z,28.5
2017-04-16T02:12:48.783Z,28.5
2017-04-16T02:13:48.870Z,28.5
2017-04-16T02:14:48.952Z,28.5
2017-04-16T02:15:49.153Z,28.5
2017-04-16T02:16:49.081Z,28.5
2017-04-16T02:17:49.067Z,28.5
2017-04-16T02:18:48.328Z,28.5
2017-04-16T02:19:49.260Z,28.4
2017-04-16T02:20:49.290Z,28.5
2017-04-16T02:21:49.756Z,28.4
2017-04-16T02:22:47.937Z,28.5
2017-04-16T02:23:47.815Z,28.5
2017-04-16T02:24:49.451Z,28.5
2017-04-16T02:25:47.893Z,28.5
2017-04-16T02:26:49.639Z,28.4
2017-04-16T02:27:48.201Z,28.4
2017-04-16T02:28:49.675Z,28.4
2017-04-16T02:29:48.179Z,28.4
2017-04-16T02:30:48.139Z,28.4
2017-04-16T02:31:48.305Z,28.5
2017-04-16T02:32:48.405Z,28.5
2017-04-16T02:33:48.437Z,28.5
2017-04-16T02:34:48.369Z,28.4
2017-04-16T02:35:50.144Z,28.4
2017-04-16T02:36:50.110Z,28.4
2017-04-16T02:37:50.184Z,28.4
2017-04-16T02:38:50.408Z,28.4
2017-04-16T02:39:50.627Z,28.4
2017-04-16T02:40:50.463Z,28.4
2017-04-16T02:41:50.475Z,28.4
2017-04-16T02:42:48.996Z,28.4
2017-04-16T02:43:48.936Z,28.4
2017-04-16T02:44:49.019Z,28.4
2017-04-16T02:45:50.942Z,28.4
2017-04-16T02:46:49.095Z,28.4
2017-04-16T02:47:50.806Z,28.4
2017-04-16T02:48:50.783Z,28.4
2017-04-16T02:49:50.815Z,28.4
2017-04-16T02:50:49.291Z,28.4
2017-04-16T02:51:49.747Z,28.4
2017-04-16T02:52:49.549Z,28.4
2017-04-16T02:53:49.544Z,28.4
2017-04-16T02:54:49.724Z,28.4
2017-04-16T02:55:49.609Z,28.4
2017-04-16T02:56:49.714Z,28.4
2017-04-16T02:57:51.633Z,28.4
2017-04-16T02:58:49.898Z,28.4
2017-04-16T02:59:49.976Z,28.4
2017-04-16T03:00:49.857Z,28.4
2017-04-16T03:01:51.518Z,28.4
2017-04-16T03:02:51.653Z,28.4
2017-04-16T03:03:51.806Z,28.4
2017-04-16T03:04:51.724Z,28.4
2017-04-16T03:05:51.742Z,28.4
2017-04-16T03:06:50.213Z,28.4
2017-04-16T03:07:51.756Z,28.5
2017-04-16T03:08:50.307Z,28.4
2017-04-16T03:09:50.433Z,28.4
2017-04-16T03:10:50.301Z,28.4
2017-04-16T03:11:51.930Z,28.4
2017-04-16T03:12:50.505Z,28.4
2017-04-16T03:13:50.556Z,28.4
2017-04-16T03:14:50.653Z,28.4
2017-04-16T03:15:52.425Z,28.4
2017-04-16T03:16:52.336Z,28.4
2017-04-16T03:17:52.428Z,28.4
2017-04-16T03:18:52.455Z,28.4
2017-04-16T03:19:52.375Z,28.4
2017-04-16T03:20:52.555Z,28.4
2017-04-16T03:21:52.807Z,28.4
2017-04-16T03:22:52.719Z,28.4
2017-04-16T03:23:52.626Z,28.4
2017-04-16T03:24:52.675Z,28.4
2017-04-16T03:25:51.277Z,28.4
2017-04-16T03:26:51.284Z,28.4
2017-04-16T03:27:53.113Z,28.4
2017-04-16T03:28:51.455Z,28.4
2017-04-16T03:29:51.520Z,28.4
2017-04-16T03:30:53.022Z,28.4
2017-04-16T03:31:51.580Z,28.4
2017-04-16T03:32:53.201Z,28.4
2017-04-16T03:33:51.898Z,28.3
2017-04-16T03:34:51.689Z,28.4
2017-04-16T03:35:53.391Z,28.4
2017-04-16T03:36:51.678Z,28.4
2017-04-16T03:37:53.390Z,28.4
2017-04-16T03:38:51.872Z,28.4
2017-04-16T03:39:52.014Z,28.4
2017-04-16T03:40:51.975Z,28.4
2017-04-16T03:41:53.653Z,28.4
2017-04-16T03:42:53.675Z,28.4
2017-04-16T03:43:52.078Z,28.4
2017-04-16T03:44:52.179Z,28.4
2017-04-16T03:45:53.906Z,28.4
2017-04-16T03:46:53.719Z,28.4
2017-04-16T03:47:53.780Z,28.4
2017-04-16T03:48:53.857Z,28.4
2017-04-16T03:49:53.909Z,28.4
2017-04-16T03:50:54.166Z,28.4
2017-04-16T03:51:52.454Z,28.4
2017-04-16T03:52:54.086Z,28.4
2017-04-16T03:53:52.615Z,28.4
2017-04-16T03:54:52.670Z,28.4
2017-04-16T03:55:52.760Z,28.3
2017-04-16T03:56:52.868Z,28.4
2017-04-16T03:57:54.448Z,28.4
2017-04-16T03:58:52.735Z,28.4
2017-04-16T03:59:52.744Z,28.3
2017-04-16T04:00:54.491Z,28.4
2017-04-16T04:01:53.024Z,28.4
2017-04-16T04:02:54.713Z,28.3
2017-04-16T04:03:54.661Z,28.4
2017-04-16T04:04:54.574Z,28.4
2017-04-16T04:05:53.182Z,28.4
2017-04-16T04:06:53.048Z,28.3
2017-04-16T04:07:53.160Z,28.3
2017-04-16T04:08:53.484Z,28.3
2017-04-16T04:09:53.232Z,28.3
2017-04-16T04:10:54.954Z,28.4
2017-04-16T04:11:54.938Z,28.4
2017-04-16T04:12:53.504Z,28.4
2017-04-16T04:13:55.114Z,28.4
2017-04-16T04:14:53.712Z,28.4
2017-04-16T04:15:53.572Z,28.4
2017-04-16T04:16:53.529Z,28.4
2017-04-16T04:17:55.258Z,28.4
2017-04-16T04:18:53.785Z,28.4
2017-04-16T04:19:55.252Z,28.4
2017-04-16T04:20:53.952Z,28.4
2017-04-16T04:21:55.271Z,28.4
2017-04-16T04:22:53.707Z,28.4
2017-04-16T04:23:53.707Z,28.4
2017-04-16T04:24:53.754Z,28.3
2017-04-16T04:25:53.743Z,28.4
2017-04-16T04:26:55.827Z,28.4
2017-04-16T04:27:55.559Z,28.4
2017-04-16T04:28:55.616Z,28.3
2017-04-16T04:29:54.096Z,28.4
2017-04-16T04:30:55.736Z,28.3
2017-04-16T04:31:55.708Z,28.4
2017-04-16T04:32:55.931Z,28.4
2017-04-16T04:33:55.731Z,28.4
2017-04-16T04:34:55.804Z,28.4
2017-04-16T04:35:55.824Z,28.3
2017-04-16T04:36:54.418Z,28.3
2017-04-16T04:37:55.905Z,28.3
2017-04-16T04:38:54.644Z,28.4
2017-04-16T04:39:56.035Z,28.3
2017-04-16T04:40:56.154Z,28.3
2017-04-16T04:41:56.128Z,28.3
2017-04-16T04:42:54.689Z,28.4
2017-04-16T04:43:54.594Z,28.4
2017-04-16T04:44:56.562Z,28.4
2017-04-16T04:45:56.425Z,28.4
2017-04-16T04:46:56.413Z,28.4
2017-04-16T04:47:55.018Z,28.4
2017-04-16T04:48:56.575Z,28.4
2017-04-16T04:49:54.935Z,28.4
2017-04-16T04:50:56.745Z,28.4
2017-04-16T04:51:56.670Z,28.4
2017-04-16T04:52:55.143Z,28.4
2017-04-16T04:53:56.909Z,28.4
2017-04-16T04:54:55.183Z,28.3
2017-04-16T04:55:55.863Z,28.4
2017-04-16T04:56:57.755Z,28.3
2017-04-16T04:57:57.183Z,28.4
2017-04-16T04:58:55.475Z,28.3
2017-04-16T04:59:55.681Z,28.4
2017-04-16T05:00:55.711Z,28.4
2017-04-16T05:01:55.602Z,28.4
2017-04-16T05:02:57.356Z,28.4
2017-04-16T05:03:57.362Z,28.4
2017-04-16T05:04:57.480Z,28.4
2017-04-16T05:05:57.452Z,28.4
2017-04-16T05:06:56.033Z,28.4
2017-04-16T05:07:57.643Z,28.4
2017-04-16T05:08:56.079Z,28.4
2017-04-16T05:09:56.103Z,28.4
2017-04-16T05:10:57.854Z,28.4
2017-04-16T05:11:57.794Z,28.4
2017-04-16T05:12:56.241Z,28.4
2017-04-16T05:13:56.286Z,28.4
2017-04-16T05:14:56.456Z,28.4
2017-04-16T05:15:56.328Z,28.4
2017-04-16T05:16:56.495Z,28.4
2017-04-16T05:17:58.068Z,28.4
2017-04-16T05:18:56.608Z,28.4
2017-04-16T05:19:58.213Z,28.4
2017-04-16T05:20:58.423Z,28.4
2017-04-16T05:21:58.409Z,28.5
2017-04-16T05:22:56.891Z,28.5
2017-04-16T05:23:56.837Z,28.5
2017-04-16T05:24:57.083Z,28.5
2017-04-16T05:25:58.642Z,28.5
2017-04-16T05:27:00.471Z,28.5
2017-04-16T05:28:00.437Z,28.5
2017-04-16T05:29:00.687Z,28.5
2017-04-16T05:29:59.252Z,28.5
2017-04-16T05:30:59.122Z,28.5
2017-04-16T05:31:59.125Z,28.5
2017-04-16T05:32:58.908Z,28.5
2017-04-16T05:33:57.246Z,28.5
2017-04-16T05:34:58.920Z,28.5
2017-04-16T05:35:58.933Z,28.5
2017-04-16T05:36:59.065Z,28.5
2017-04-16T05:37:57.900Z,28.5
2017-04-16T05:38:59.180Z,28.5
2017-04-16T05:39:59.285Z,28.5
2017-04-16T05:40:59.330Z,28.6
2017-04-16T05:41:57.773Z,28.6
2017-04-16T05:42:57.835Z,28.6
2017-04-16T05:43:59.610Z,28.6
2017-04-16T05:44:57.778Z,28.6
2017-04-16T05:45:59.398Z,28.6
2017-04-16T05:46:57.819Z,28.6
2017-04-16T05:47:57.940Z,28.6
2017-04-16T05:48:57.948Z,28.6
2017-04-16T05:49:59.788Z,28.6
2017-04-16T05:50:59.615Z,28.6
2017-04-16T05:51:58.219Z,28.6
2017-04-16T05:52:58.147Z,28.6
2017-04-16T05:53:59.878Z,28.7
2017-04-16T05:54:58.649Z,28.7
2017-04-16T05:56:00.060Z,28.7
2017-04-16T05:57:00.072Z,28.7
2017-04-16T05:58:04.098Z,28.7
2017-04-16T05:59:02.303Z,28.7
2017-04-16T05:59:59.728Z,28.8
2017-04-16T06:01:02.113Z,28.8
2017-04-16T06:02:00.744Z,28.8
2017-04-16T06:02:58.850Z,28.8
2017-04-16T06:04:01.930Z,28.8
2017-04-16T06:05:02.107Z,28.8
2017-04-16T06:06:04.893Z,28.8
2017-04-16T06:07:01.605Z,28.8
2017-04-16T06:08:00.423Z,28.8
2017-04-16T06:09:03.085Z,28.9
2017-04-16T06:10:03.383Z,28.9
2017-04-16T06:11:02.213Z,28.9
2017-04-16T06:12:01.154Z,28.8
2017-04-16T06:12:59.821Z,28.9
2017-04-16T06:14:01.927Z,28.8
2017-04-16T06:15:03.410Z,28.9
2017-04-16T06:16:02.938Z,28.9
2017-04-16T06:17:04.263Z,28.9
2017-04-16T06:18:03.393Z,28.9
2017-04-16T06:19:01.388Z,28.9
2017-04-16T06:20:01.275Z,28.9
2017-04-16T06:20:59.686Z,28.9
2017-04-16T06:21:59.748Z,28.9
2017-04-16T06:23:01.588Z,28.9
2017-04-16T06:23:59.871Z,29
2017-04-16T06:25:01.411Z,29
2017-04-16T06:26:01.473Z,29
2017-04-16T06:26:59.817Z,29
2017-04-16T06:27:59.993Z,29
2017-04-16T06:29:00.144Z,29
2017-04-16T06:30:00.051Z,29
2017-04-16T06:31:02.764Z,29
2017-04-16T06:32:00.147Z,29.1
2017-04-16T06:33:00.124Z,29.1
2017-04-16T06:34:01.938Z,29.1
2017-04-16T06:35:00.610Z,29.1
2017-04-16T06:36:02.135Z,29.1
2017-04-16T06:37:02.139Z,29.2
2017-04-16T06:38:00.550Z,29.1
2017-04-16T06:39:02.293Z,29.2
2017-04-16T06:40:02.349Z,29.2
2017-04-16T06:41:00.977Z,29.2
2017-04-16T06:42:02.462Z,29.3
2017-04-16T06:43:02.436Z,29.3
2017-04-16T06:44:02.541Z,29.3
2017-04-16T06:45:02.470Z,29.3
2017-04-16T06:46:02.503Z,29.3
2017-04-16T06:47:02.691Z,29.4
2017-04-16T06:48:02.560Z,29.4
2017-04-16T06:49:02.718Z,29.4
2017-04-16T06:50:01.186Z,29.4
2017-04-16T06:51:02.727Z,29.4
2017-04-16T06:52:01.341Z,29.5
2017-04-16T06:53:03.137Z,29.5
2017-04-16T06:54:02.917Z,29.5
2017-04-16T06:55:01.328Z,29.5
2017-04-16T06:56:02.937Z,29.5
2017-04-16T06:57:03.100Z,29.5
2017-04-16T06:58:01.559Z,29.6
2017-04-16T06:59:03.318Z,29.6
2017-04-16T07:00:01.690Z,29.5
2017-04-16T07:01:01.602Z,29.6
2017-04-16T07:02:01.712Z,29.6
2017-04-16T07:03:01.732Z,29.6
2017-04-16T07:04:03.365Z,29.6
2017-04-16T07:05:01.963Z,29.6
2017-04-16T07:06:03.480Z,29.5
2017-04-16T07:07:01.889Z,29.6
2017-04-16T07:08:03.658Z,29.6
2017-04-16T07:09:02.046Z,29.6
2017-04-16T07:10:03.689Z,29.6
2017-04-16T07:11:03.989Z,29.6
2017-04-16T07:12:03.753Z,29.6
2017-04-16T07:13:03.964Z,29.6
2017-04-16T07:14:03.875Z,29.6
2017-04-16T07:15:03.971Z,29.6
2017-04-16T07:16:02.402Z,29.6
2017-04-16T07:17:04.562Z,29.6
2017-04-16T07:18:02.647Z,29.5
2017-04-16T07:19:02.614Z,29.6
2017-04-16T07:20:02.757Z,29.6
2017-04-16T07:21:04.400Z,29.6
2017-04-16T07:22:02.910Z,29.6
2017-04-16T07:23:04.578Z,29.6
2017-04-16T07:24:04.514Z,29.6
2017-04-16T07:25:04.612Z,29.6
2017-04-16T07:26:04.528Z,29.6
2017-04-16T07:27:03.041Z,29.6
2017-04-16T07:28:04.665Z,29.6
2017-04-16T07:29:04.897Z,29.7
2017-04-16T07:30:03.088Z,29.6
2017-04-16T07:31:05.334Z,29.7
2017-04-16T07:32:05.543Z,29.7
2017-04-16T07:33:04.886Z,29.8
2017-04-16T07:34:04.950Z,29.8
2017-04-16T07:35:03.635Z,29.8
2017-04-16T07:36:05.121Z,29.9
2017-04-16T07:37:04.994Z,29.9
2017-04-16T07:38:03.616Z,29.9
2017-04-16T07:39:03.507Z,29.9
2017-04-16T07:40:03.648Z,30
2017-04-16T07:41:03.743Z,30
2017-04-16T07:42:03.737Z,30
2017-04-16T07:43:03.835Z,30.1
2017-04-16T07:44:03.940Z,30.1
2017-04-16T07:45:05.545Z,30.1
2017-04-16T07:46:03.982Z,30.1
2017-04-16T07:47:04.159Z,30.2
2017-04-16T07:48:05.656Z,30.2
2017-04-16T07:49:03.925Z,30.2
2017-04-16T07:50:03.976Z,30.2
2017-04-16T07:51:05.649Z,30.2
2017-04-16T07:52:09.118Z,30.2
2017-04-16T07:53:04.419Z,30.2
2017-04-16T07:54:05.847Z,30.3
2017-04-16T07:55:06.030Z,30.3
2017-04-16T07:56:04.365Z,30.3
2017-04-16T07:57:05.056Z,30.4
2017-04-16T07:58:04.479Z,30.4
2017-04-16T07:59:04.569Z,30.4
2017-04-16T08:00:06.171Z,30.4
2017-04-16T08:01:06.279Z,30.4
2017-04-16T08:02:04.728Z,30.4
2017-04-16T08:03:04.681Z,30.5
2017-04-16T08:04:06.422Z,30.5
2017-04-16T08:05:04.953Z,30.5
2017-04-16T08:06:04.930Z,30.6
2017-04-16T08:07:07.246Z,30.6
2017-04-16T08:08:06.667Z,30.6
2017-04-16T08:09:05.011Z,30.6
2017-04-16T08:10:06.761Z,30.6
2017-04-16T08:11:06.914Z,30.6
2017-04-16T08:12:05.266Z,30.5
2017-04-16T08:13:06.742Z,30.4
2017-04-16T08:14:05.209Z,30.4
2017-04-16T08:15:05.395Z,30.4
2017-04-16T08:16:05.681Z,30.3
2017-04-16T08:17:06.932Z,30.3
2017-04-16T08:18:07.036Z,30.3
2017-04-16T08:19:07.090Z,30.3
2017-04-16T08:20:05.404Z,30.2
2017-04-16T08:21:05.430Z,30.2
2017-04-16T08:22:05.623Z,30.2
2017-04-16T08:23:07.158Z,30.2
2017-04-16T08:24:07.347Z,30.2
2017-04-16T08:25:05.745Z,30.2
2017-04-16T08:26:05.837Z,30.2
2017-04-16T08:27:05.775Z,30.2
2017-04-16T08:28:06.172Z,30.2
2017-04-16T08:29:05.948Z,30.1
2017-04-16T08:30:05.978Z,30
2017-04-16T08:31:05.991Z,30
2017-04-16T08:32:07.619Z,30
2017-04-16T08:33:07.792Z,30
2017-04-16T08:34:06.448Z,29.9
2017-04-16T08:35:06.192Z,29.9
2017-04-16T08:36:07.899Z,29.9
2017-04-16T08:37:06.333Z,29.8
2017-04-16T08:38:06.321Z,29.8
2017-04-16T08:39:06.397Z,29.8
2017-04-16T08:40:06.775Z,29.7
2017-04-16T08:41:06.435Z,29.7
2017-04-16T08:42:06.533Z,29.6
2017-04-16T08:43:06.759Z,29.6
2017-04-16T08:44:08.221Z,29.6
2017-04-16T08:45:08.390Z,29.6
2017-04-16T08:46:08.454Z,29.5
2017-04-16T08:47:08.418Z,29.5
2017-04-16T08:48:06.853Z,29.5
2017-04-16T08:49:06.854Z,29.5
2017-04-16T08:50:06.979Z,29.5
2017-04-16T08:51:07.016Z,29.5
2017-04-16T08:52:07.059Z,29.5
2017-04-16T08:53:08.555Z,29.5
2017-04-16T08:54:08.668Z,29.5
2017-04-16T08:55:07.136Z,29.5
2017-04-16T08:56:07.191Z,29.6
2017-04-16T08:57:08.898Z,29.6
2017-04-16T08:58:09.050Z,29.7
2017-04-16T08:59:08.917Z,29.8
2017-04-16T09:00:08.956Z,30
2017-04-16T09:01:09.111Z,30
2017-04-16T09:02:09.121Z,30.5
2017-04-16T09:03:09.717Z,31
2017-04-16T09:04:07.949Z,31.3
2017-04-16T09:05:07.751Z,31.5
2017-04-16T09:06:07.827Z,31.9
2017-04-16T09:07:08.522Z,32.2
2017-04-16T09:08:08.082Z,32.5
2017-04-16T09:09:08.022Z,32.7
2017-04-16T09:10:08.301Z,32.9
2017-04-16T09:11:10.376Z,32.9
2017-04-16T09:12:09.778Z,33
2017-04-16T09:13:09.764Z,33
2017-04-16T09:14:08.180Z,33
2017-04-16T09:15:09.848Z,33
2017-04-16T09:16:10.177Z,32.9
2017-04-16T09:17:08.492Z,32.9
2017-04-16T09:18:08.399Z,32.8
2017-04-16T09:19:08.398Z,32.8
2017-04-16T09:20:08.478Z,32.8
2017-04-16T09:21:10.270Z,32.8
2017-04-16T09:22:08.882Z,32.7
2017-04-16T09:23:10.228Z,32.7
2017-04-16T09:24:10.493Z,32.7
2017-04-16T09:25:08.738Z,32.7
2017-04-16T09:26:10.461Z,32.7
2017-04-16T09:27:11.285Z,32.7
2017-04-16T09:28:11.430Z,32.5
2017-04-16T09:29:09.617Z,32.3
2017-04-16T09:30:10.801Z,32.1
2017-04-16T09:31:10.854Z,31.9
2017-04-16T09:32:10.755Z,31.7
2017-04-16T09:33:10.776Z,31.6
2017-04-16T09:34:09.308Z,31.4
2017-04-16T09:35:09.219Z,31.3
2017-04-16T09:36:09.782Z,31.2
2017-04-16T09:37:09.399Z,31.1
2017-04-16T09:38:09.365Z,30.9
2017-04-16T09:39:09.406Z,30.8
2017-04-16T09:40:11.199Z,30.7
2017-04-16T09:41:09.460Z,30.7
2017-04-16T09:42:09.571Z,30.5
2017-04-16T09:43:09.624Z,30.5
2017-04-16T09:44:11.319Z,30.4
2017-04-16T09:45:09.793Z,30.4
2017-04-16T09:46:10.051Z,30.4
2017-04-16T09:47:09.849Z,30.3
2017-04-16T09:48:11.524Z,30.3
2017-04-16T09:49:11.519Z,30.2
2017-04-16T09:50:10.104Z,30.2
2017-04-16T09:51:11.718Z,30.1
2017-04-16T09:52:10.474Z,30.1
2017-04-16T09:53:10.217Z,30
2017-04-16T09:54:12.415Z,30
2017-04-16T09:55:10.299Z,30
2017-04-16T09:56:11.896Z,30
2017-04-16T09:57:10.255Z,29.9
2017-04-16T09:58:12.209Z,29.9
2017-04-16T09:59:12.017Z,29.9
2017-04-16T10:00:10.387Z,29.8
2017-04-16T10:01:12.081Z,29.8
2017-04-16T10:02:12.115Z,29.8
2017-04-16T10:03:10.378Z,29.9
2017-04-16T10:04:10.588Z,29.9
2017-04-16T10:05:12.096Z,30
2017-04-16T10:06:12.916Z,30
2017-04-16T10:07:12.199Z,30.1
2017-04-16T10:08:10.730Z,30.1
2017-04-16T10:09:12.209Z,30.1
2017-04-16T10:10:10.935Z,30.2
2017-04-16T10:11:10.675Z,30.3
2017-04-16T10:12:12.334Z,30.3
2017-04-16T10:13:10.740Z,30.4
2017-04-16T10:14:10.847Z,30.5
2017-04-16T10:15:11.000Z,30.6
2017-04-16T10:16:11.198Z,30.7
2017-04-16T10:17:12.753Z,30.8
2017-04-16T10:18:11.052Z,30.9
2017-04-16T10:19:11.207Z,31
2017-04-16T10:20:11.233Z,31.1
2017-04-16T10:21:11.116Z,31.1
2017-04-16T10:22:11.305Z,31.2
2017-04-16T10:23:11.306Z,31.2
2017-04-16T10:24:12.992Z,31.2
2017-04-16T10:25:11.388Z,31.1
2017-04-16T10:26:11.357Z,31.2
2017-04-16T10:27:11.400Z,31.1
2017-04-16T10:28:11.603Z,31.1
2017-04-16T10:29:13.089Z,31.1
2017-04-16T10:30:11.558Z,31.1
2017-04-16T10:31:11.514Z,31
2017-04-16T10:32:11.720Z,31
2017-04-16T10:33:11.717Z,30.9
2017-04-16T10:34:13.481Z,30.9
2017-04-16T10:35:13.343Z,30.9
2017-04-16T10:36:12.428Z,30.8
2017-04-16T10:37:13.404Z,30.8
2017-04-16T10:38:13.497Z,30.7
2017-04-16T10:39:13.504Z,30.7
2017-04-16T10:40:13.668Z,30.7
2017-04-16T10:41:12.470Z,30.6
2017-04-16T10:42:12.130Z,30.6
2017-04-16T10:43:13.692Z,30.5
2017-04-16T10:44:13.862Z,30.5
2017-04-16T10:45:12.318Z,30.5
2017-04-16T10:46:14.022Z,30.6
2017-04-16T10:47:12.282Z,30.8
2017-04-16T10:48:13.967Z,30.9
2017-04-16T10:49:12.564Z,31.1
2017-04-16T10:50:14.126Z,31.2
2017-04-16T10:51:14.678Z,31.5
2017-04-16T10:52:12.788Z,31.7
2017-04-16T10:53:12.714Z,32
2017-04-16T10:54:12.827Z,32.4
2017-04-16T10:55:12.793Z,32.8
2017-04-16T10:56:15.102Z,33.4
2017-04-16T10:57:13.075Z,33.9
2017-04-16T10:58:13.143Z,34.3
2017-04-16T10:59:13.125Z,34.4
2017-04-16T11:00:14.689Z,34.2
2017-04-16T11:01:14.610Z,33.9
2017-04-16T11:02:13.080Z,33.7
2017-04-16T11:03:13.220Z,33.4
2017-04-16T11:04:15.100Z,33.3
2017-04-16T11:05:13.398Z,33.2
2017-04-16T11:06:15.004Z,33
2017-04-16T11:07:15.086Z,33
2017-04-16T11:08:15.214Z,32.9
2017-04-16T11:09:13.632Z,32.8
2017-04-16T11:10:13.959Z,32.8
2017-04-16T11:11:15.444Z,32.7
2017-04-16T11:12:15.571Z,32.6
2017-04-16T11:13:15.544Z,32.5
2017-04-16T11:14:15.646Z,32.4
2017-04-16T11:15:15.722Z,32.2
2017-04-16T11:16:15.974Z,32.2
2017-04-16T11:17:15.806Z,32
2017-04-16T11:18:15.722Z,31.9
2017-04-16T11:19:15.899Z,31.8
2017-04-16T11:20:14.196Z,31.7
2017-04-16T11:21:14.190Z,31.6
2017-04-16T11:22:16.078Z,31.9
2017-04-16T11:23:16.068Z,32.4
2017-04-16T11:24:15.996Z,32.8
2017-04-16T11:25:14.455Z,33.2
2017-04-16T11:26:16.054Z,33.7
2017-04-16T11:27:14.649Z,34.1
2017-04-16T11:28:16.539Z,34
2017-04-16T11:29:16.195Z,33.9
2017-04-16T11:30:14.764Z,34.1
2017-04-16T11:31:14.711Z,34.2
2017-04-16T11:32:14.806Z,34.1
2017-04-16T11:33:14.949Z,33.9
2017-04-16T11:34:16.713Z,33.7
2017-04-16T11:35:14.852Z,33.5
2017-04-16T11:36:16.685Z,33.3
2017-04-16T11:37:16.600Z,33.3
2017-04-16T11:38:15.139Z,33.4
2017-04-16T11:39:16.661Z,33.5
2017-04-16T11:40:16.968Z,33.6
2017-04-16T11:41:15.224Z,33.6
2017-04-16T11:42:15.363Z,33.5
2017-04-16T11:43:17.003Z,33.3
2017-04-16T11:44:15.426Z,33.2
2017-04-16T11:45:15.521Z,33.1
2017-04-16T11:46:15.650Z,32.9
2017-04-16T11:47:17.247Z,32.8
2017-04-16T11:48:15.769Z,32.7
2017-04-16T11:49:17.256Z,32.5
2017-04-16T11:50:17.317Z,32.3
2017-04-16T11:51:15.721Z,32.1
2017-04-16T11:52:16.173Z,31.9
2017-04-16T11:53:15.919Z,31.7
2017-04-16T11:54:16.130Z,31.6
2017-04-16T11:55:17.768Z,31.5
2017-04-16T11:56:17.637Z,31.3
2017-04-16T11:57:16.165Z,31.2
2017-04-16T11:58:16.341Z,31.1
2017-04-16T11:59:17.766Z,31
2017-04-16T12:00:17.831Z,30.9
2017-04-16T12:01:16.428Z,30.9
2017-04-16T12:02:17.943Z,30.8
2017-04-16T12:03:17.983Z,30.8
2017-04-16T12:04:18.293Z,30.8
2017-04-16T12:05:17.146Z,30.7
2017-04-16T12:06:18.226Z,30.7
2017-04-16T12:07:16.574Z,30.7
2017-04-16T12:08:18.208Z,30.7
2017-04-16T12:09:16.825Z,30.6
2017-04-16T12:10:18.702Z,30.6
2017-04-16T12:11:16.740Z,30.6
2017-04-16T12:12:16.819Z,30.6
2017-04-16T12:13:17.082Z,30.5
2017-04-16T12:14:18.539Z,30.6
2017-04-16T12:15:18.573Z,30.5
2017-04-16T12:16:18.891Z,30.5
2017-04-16T12:17:18.778Z,30.5
2017-04-16T12:18:18.841Z,30.5
2017-04-16T12:19:17.195Z,30.5
2017-04-16T12:20:18.815Z,30.5
2017-04-16T12:21:19.014Z,30.5
2017-04-16T12:22:18.966Z,30.5
2017-04-16T12:23:19.041Z,30.5
2017-04-16T12:24:18.308Z,30.4
2017-04-16T12:25:19.974Z,30.4
2017-04-16T12:26:19.831Z,30.4
2017-04-16T12:27:17.843Z,30.4
2017-04-16T12:28:19.424Z,30.4
2017-04-16T12:29:19.526Z,30.4
2017-04-16T12:30:19.401Z,30.4
2017-04-16T12:31:19.542Z,30.4
2017-04-16T12:32:17.923Z,30.4
2017-04-16T12:33:19.645Z,30.4
2017-04-16T12:34:20.352Z,30.4
2017-04-16T12:35:18.006Z,30.4
2017-04-16T12:36:18.101Z,30.5
2017-04-16T12:37:19.758Z,30.5
2017-04-16T12:38:19.830Z,30.5
2017-04-16T12:39:18.434Z,30.5
2017-04-16T12:40:20.021Z,30.5
2017-04-16T12:41:20.119Z,30.6
2017-04-16T12:42:20.062Z,30.7
2017-04-16T12:43:18.619Z,30.9
2017-04-16T12:44:20.344Z,31.1
2017-04-16T12:45:18.843Z,31.3
2017-04-16T12:46:20.257Z,31.5
2017-04-16T12:47:18.680Z,31.7
2017-04-16T12:48:18.774Z,31.7
2017-04-16T12:49:20.461Z,31.8
2017-04-16T12:50:18.873Z,31.8
2017-04-16T12:51:20.837Z,31.7
2017-04-16T12:52:20.767Z,31.6
2017-04-16T12:53:20.641Z,31.5
2017-04-16T12:54:20.809Z,31.5
2017-04-16T12:55:19.322Z,31.4
2017-04-16T12:56:20.786Z,31.4
2017-04-16T12:57:21.107Z,31.3
2017-04-16T12:58:20.919Z,31.2
2017-04-16T12:59:21.024Z,31.2
2017-04-16T13:00:19.512Z,31.1
2017-04-16T13:01:21.141Z,31.1
2017-04-16T13:02:21.128Z,31
2017-04-16T13:03:19.931Z,31
2017-04-16T13:04:21.456Z,30.9
2017-04-16T13:05:21.271Z,30.9
2017-04-16T13:06:21.436Z,30.9
2017-04-16T13:07:19.761Z,30.8
2017-04-16T13:08:21.499Z,30.8
2017-04-16T13:09:21.842Z,30.7
2017-04-16T13:10:21.754Z,30.8
2017-04-16T13:11:20.016Z,30.7
2017-04-16T13:12:20.273Z,30.7
2017-04-16T13:13:21.761Z,30.7
2017-04-16T13:14:20.337Z,30.7
2017-04-16T13:15:20.506Z,30.7
2017-04-16T13:16:20.433Z,30.8
2017-04-16T13:17:20.465Z,30.9
2017-04-16T13:18:21.951Z,31.2
2017-04-16T13:19:20.554Z,31.5
2017-04-16T13:20:21.600Z,31.6
2017-04-16T13:21:22.322Z,31.6
2017-04-16T13:22:20.611Z,31.7